Invergordon, United Kingdom
Current Conditions -  °F | °C
As of 11:20 AM on Thursday 18 Dec 2014 (Local Time) from EGPE Reporting Station
Scattered Clouds Scattered Clouds  
Wind Chill: 37°   Ceiling: Unl
Heat Index: 45°   Visibility: 6mi
Dew Point: 41°   Wind: 16mph
Humidity: 87%   Direction: 250°WSW
Pressure: 29.23"   Gusts: NA
Location:  57.69°N, 4.17°W
Report Text: EGPE 181120Z 25014KT 9999 FEW018 SCT038 07/05 Q0990
Loading
Personal Weather Stations






























Interactive Weather Map New forecast layout! Learn more

10-Day Weather Forecast

Advertisements
Track Severe Weather on mobile